Time;durP1;ratioP1;P1;durP2;ratioP2;P2;SDS_P1;SDS_P2;PMS_P1;PMS_P2;Temp;Humidity;BMP_temperature;BMP_pressure;BME280_temperature;BME280_humidity;BME280_pressure;Samples;Min_cycle;Max_cycle;Signal;HPM_P1;HPM_P2
2021/11/18 12:04:12;;;;;;;13.98;2.85;;;16.30;99.90;;;;;;4929919;27;66865;-59
2021/11/18 12:08:29;;;;;;;11.73;2.53;;;17.90;99.90;;;;;;5032075;28;73984;-59
2021/11/18 12:11:51;;;;;;;7.40;2.65;;;18.60;99.90;;;;;;5087949;27;76825;-58
2021/11/18 12:14:32;;;;;;;5.07;2.22;;;19.00;99.90;;;;;;5094881;28;20554;-60
2021/11/18 12:17:17;;;;;;;5.75;2.05;;;19.20;99.90;;;;;;5105127;28;20016;-59
2021/11/18 12:19:46;;;;;;;7.47;2.38;;;19.30;99.90;;;;;;5105857;28;20052;-59
2021/11/18 12:22:33;;;;;;;9.35;2.70;;;19.50;99.90;;;;;;5100202;28;20073;-58
2021/11/18 12:25:23;;;;;;;6.63;2.95;;;19.60;99.90;;;;;;5105071;27;20116;-59
2021/11/18 12:28:07;;;;;;;6.05;2.15;;;19.60;99.90;;;;;;5095892;28;20107;-59
2021/11/18 12:31:02;;;;;;;7.00;2.38;;;19.70;99.90;;;;;;5093803;27;20054;-58
2021/11/18 12:33:27;;;;;;;10.88;2.60;;;19.70;99.90;;;;;;5108174;27;74531;-59
2021/11/18 12:35:56;;;;;;;11.57;2.83;;;19.80;99.90;;;;;;5105381;28;20024;-61
2021/11/18 12:38:34;;;;;;;5.68;2.45;;;19.80;99.90;;;;;;5116232;27;20071;-60
2021/11/18 12:41:11;;;;;;;11.40;2.75;;;19.90;99.90;;;;;;5123994;27;20105;-61
2021/11/18 12:43:42;;;;;;;5.50;2.33;;;19.90;99.90;;;;;;5104777;28;20440;-59
2021/11/18 12:46:20;;;;;;;7.47;2.40;;;19.90;99.90;;;;;;5120448;28;20030;-59
2021/11/18 12:48:52;;;;;;;5.35;2.70;;;20.00;99.90;;;;;;5124808;28;20394;-60
2021/11/18 12:51:27;;;;;;;6.25;2.60;;;20.00;99.90;;;;;;5121433;28;20091;-60
2021/11/18 12:54:17;;;;;;;8.23;2.85;;;20.10;99.90;;;;;;5119667;28;20019;-64
2021/11/18 12:56:52;;;;;;;7.45;2.13;;;20.10;99.90;;;;;;5122265;28;20042;-59
2021/11/18 12:59:52;;;;;;;4.50;2.42;;;20.10;99.90;;;;;;5125809;28;20031;-60
2021/11/18 13:02:26;;;;;;;5.32;2.50;;;20.10;99.90;;;;;;5068197;28;20040;-61
2021/11/18 13:04:58;;;;;;;5.70;2.35;;;20.10;99.90;;;;;;5123995;28;20022;-58
2021/11/18 13:07:40;;;;;;;5.75;2.65;;;20.10;99.90;;;;;;5124533;28;20096;-60
2021/11/18 13:10:18;;;;;;;6.20;2.55;;;20.10;99.90;;;;;;5117430;27;20187;-58
2021/11/18 13:12:48;;;;;;;6.53;2.80;;;20.10;99.90;;;;;;5117380;27;20835;-58
2021/11/18 13:15:23;;;;;;;7.30;2.65;;;20.10;99.90;;;;;;5120970;28;20027;-58
2021/11/18 13:18:01;;;;;;;10.98;2.78;;;20.20;99.90;;;;;;5124010;28;20015;-58
2021/11/18 13:21:09;;;;;;;7.70;2.50;;;20.20;99.90;;;;;;5120436;28;20038;-59
2021/11/18 13:23:49;;;;;;;6.45;2.53;;;20.20;99.90;;;;;;5080336;28;20036;-57
2021/11/18 13:26:15;;;;;;;7.55;2.80;;;20.20;99.90;;;;;;5106292;28;20401;-57
2021/11/18 13:29:10;;;;;;;7.07;3.08;;;20.20;99.90;;;;;;5103940;28;20027;-57
2021/11/18 13:31:48;;;;;;;7.55;3.05;;;20.20;99.90;;;;;;5104868;28;20100;-56
2021/11/18 13:35:15;;;;;;;6.28;2.22;;;20.20;99.90;;;;;;5107368;28;20412;-56
2021/11/18 13:37:45;;;;;;;8.85;2.38;;;20.20;99.90;;;;;;5025088;28;20515;-55
2021/11/18 13:40:19;;;;;;;8.15;2.30;;;20.20;99.90;;;;;;5102633;28;20861;-56
2021/11/18 13:43:13;;;;;;;6.72;2.45;;;20.10;99.90;;;;;;5109071;28;20027;-55
2021/11/18 13:45:56;;;;;;;6.50;2.60;;;20.20;99.90;;;;;;5104154;28;20578;-55
2021/11/18 13:48:37;;;;;;;8.25;2.50;;;20.10;99.90;;;;;;5105651;28;20696;-57
2021/11/18 13:51:04;;;;;;;6.13;2.30;;;20.10;99.90;;;;;;5106565;28;20024;-58
2021/11/18 13:53:45;;;;;;;7.65;2.90;;;20.10;99.90;;;;;;5106906;28;20035;-58
2021/11/18 13:56:26;;;;;;;7.65;2.63;;;20.10;99.90;;;;;;5090674;28;20024;-58
2021/11/18 13:59:00;;;;;;;9.15;2.90;;;20.10;99.90;;;;;;5109149;28;20012;-76
2021/11/18 14:01:38;;;;;;;5.80;2.67;;;20.10;99.90;;;;;;5109180;28;20160;-70
2021/11/18 14:04:21;;;;;;;6.35;2.40;;;20.10;99.90;;;;;;5107010;28;20035;-66
2021/11/18 14:06:50;;;;;;;6.82;2.40;;;20.10;99.90;;;;;;5099031;28;20112;-74
2021/11/18 14:09:30;;;;;;;7.32;2.67;;;20.10;99.90;;;;;;5103841;28;20137;-67
2021/11/18 14:12:04;;;;;;;5.60;2.25;;;20.10;99.90;;;;;;5106213;28;20012;-67
2021/11/18 14:14:29;;;;;;;6.38;3.00;;;20.10;99.90;;;;;;5083718;28;20887;-70
2021/11/18 14:17:22;;;;;;;6.40;2.80;;;20.10;99.90;;;;;;5108788;28;20026;-68
2021/11/18 14:20:06;;;;;;;5.15;2.50;;;20.10;99.90;;;;;;5107399;28;20015;-69
2021/11/18 14:22:33;;;;;;;6.82;2.38;;;20.10;99.90;;;;;;5104787;28;20030;-76
2021/11/18 14:25:31;;;;;;;8.52;2.70;;;20.10;99.90;;;;;;5102773;28;20035;-66
2021/11/18 14:28:05;;;;;;;8.15;3.10;;;20.10;99.90;;;;;;5102138;28;20103;-73
2021/11/18 14:30:40;;;;;;;6.20;2.42;;;20.10;99.90;;;;;;5060009;27;20047;-66
2021/11/18 14:33:12;;;;;;;7.90;2.50;;;20.10;99.90;;;;;;5063385;28;20403;-65
2021/11/18 14:35:56;;;;;;;5.95;2.20;;;20.10;99.90;;;;;;5087619;28;20040;-67
2021/11/18 14:38:42;;;;;;;8.57;2.58;;;20.10;99.90;;;;;;5078446;28;20040;-66
2021/11/18 14:41:48;;;;;;;7.20;2.78;;;20.10;99.90;;;;;;5082251;28;20510;-66
2021/11/18 16:13:19;;;;;;;27.60;6.00;;;15.50;99.90;;;;;;5172159;27;20197;-72
2021/11/18 16:15:51;;;;;;;22.55;5.97;;;14.70;99.90;;;;;;5170474;27;20023;-73
2021/11/18 16:33:01;;;;;;;27.77;6.85;;;12.20;99.90;;;;;;5170855;27;20114;-71
2021/11/18 16:35:28;;;;;;;33.05;6.97;;;12.10;99.90;;;;;;5148225;27;20668;-71
2021/11/18 16:37:55;;;;;;;32.47;7.53;;;12.10;99.90;;;;;;5147995;27;20019;-71
2021/11/18 16:40:28;;;;;;;;;;;12.00;99.90;;;;;;5148003;27;20347;-71
2021/11/18 16:42:56;;;;;;;35.50;7.03;;;11.90;99.90;;;;;;5150083;27;19903;-71
2021/11/18 16:45:23;;;;;;;29.10;7.10;;;11.90;99.90;;;;;;5113264;27;20201;-73
2021/11/18 16:47:50;;;;;;;27.30;6.60;;;11.80;99.90;;;;;;5069866;28;20073;-71
2021/11/18 16:50:23;;;;;;;24.88;6.63;;;11.80;99.90;;;;;;5067722;28;20036;-71
2021/11/18 16:52:51;;;;;;;21.60;5.88;;;11.70;99.90;;;;;;5070944;28;20024;-73
2021/11/18 16:55:23;;;;;;;27.77;5.85;;;11.70;99.90;;;;;;5085039;28;20689;-71
2021/11/18 16:57:49;;;;;;;42.28;10.68;;;11.70;99.90;;;;;;5070620;28;20432;-72
2021/11/18 17:03:39;;;;;;;78.53;30.77;;;11.70;99.90;;;;;;5175800;27;20110;-72
2021/11/18 17:06:08;;;;;;;58.22;18.95;;;11.70;99.90;;;;;;5163220;27;20022;-72
2021/11/18 17:08:34;;;;;;;34.78;8.80;;;11.60;99.90;;;;;;5151052;27;20070;-72
2021/11/18 17:11:01;;;;;;;;;;;11.60;99.90;;;;;;5158745;27;20019;-72
2021/11/18 17:13:28;;;;;;;28.15;7.38;;;11.60;99.90;;;;;;5154800;27;20006;-72
2021/11/18 17:15:55;;;;;;;19.42;6.50;;;11.60;99.90;;;;;;5163675;27;20499;-72
2021/11/18 17:18:40;;;;;;;37.67;7.32;;;11.60;99.90;;;;;;5160077;27;20011;-72
2021/11/18 17:21:15;;;;;;;28.15;6.70;;;11.60;99.90;;;;;;5148833;27;20050;-73
2021/11/18 17:23:41;;;;;;;26.73;6.15;;;11.60;99.90;;;;;;5142842;27;20041;-71
2021/11/18 17:26:08;;;;;;;;;;;11.60;99.90;;;;;;5148087;27;20398;-73
2021/11/18 17:28:36;;;;;;;29.58;6.28;;;11.60;99.90;;;;;;5142398;27;19960;-71
2021/11/18 17:31:06;;;;;;;31.42;8.73;;;11.60;99.90;;;;;;5140520;27;20026;-71
2021/11/18 17:33:31;;;;;;;31.67;7.95;;;11.60;99.90;;;;;;5157524;27;20098;-71
2021/11/18 17:36:07;;;;;;;32.97;8.82;;;11.60;99.90;;;;;;5143684;27;20467;-72
2021/11/18 17:38:35;;;;;;;30.02;8.50;;;11.60;99.90;;;;;;5151393;27;20023;-72
2021/11/18 17:41:03;;;;;;;27.52;7.43;;;11.60;99.90;;;;;;5143003;27;20080;-72
2021/11/18 17:43:30;;;;;;;25.77;7.55;;;11.50;99.90;;;;;;5161954;27;20039;-72
2021/11/18 17:46:02;;;;;;;28.67;7.80;;;11.50;99.90;;;;;;5136134;27;20023;-72
2021/11/18 17:48:29;;;;;;;28.33;7.63;;;11.50;99.90;;;;;;5142289;27;20034;-72
2021/11/18 17:51:00;;;;;;;30.63;8.00;;;11.50;99.90;;;;;;5152235;27;20015;-73
2021/11/18 17:53:26;;;;;;;28.63;8.52;;;11.50;99.90;;;;;;5074731;28;20644;-72
2021/11/18 17:55:54;;;;;;;34.03;8.80;;;11.50;99.90;;;;;;5095648;28;20025;-72
2021/11/18 17:58:22;;;;;;;23.85;6.65;;;11.50;99.90;;;;;;5089127;28;20131;-72
2021/11/18 18:00:47;;;;;;;32.95;8.82;;;11.40;99.90;;;;;;5073656;28;20035;-72
2021/11/18 18:03:15;;;;;;;48.22;8.98;;;11.50;99.90;;;;;;5075217;28;20119;-71
2021/11/18 18:05:42;;;;;;;33.72;7.68;;;11.40;99.90;;;;;;5078955;28;20102;-72
2021/11/18 18:08:10;;;;;;;34.33;9.68;;;11.40;99.90;;;;;;5072821;28;20033;-73
2021/11/18 18:10:36;;;;;;;34.17;6.88;;;11.40;99.90;;;;;;5071622;28;20025;-72
2021/11/18 18:13:03;;;;;;;36.95;7.93;;;11.40;99.90;;;;;;5086890;28;20521;-72
2021/11/18 18:15:29;;;;;;;27.05;6.75;;;11.40;99.90;;;;;;5075468;28;20051;-71
2021/11/18 18:17:57;;;;;;;27.75;6.28;;;11.40;99.90;;;;;;5057341;28;20035;-72
2021/11/18 18:20:27;;;;;;;25.13;7.00;;;11.40;99.90;;;;;;5062527;28;20024;-73
2021/11/18 18:22:54;;;;;;;30.48;7.18;;;11.40;99.90;;;;;;5063253;28;20035;-72
2021/11/18 18:25:21;;;;;;;36.58;7.57;;;11.40;99.90;;;;;;5060450;28;20032;-73
2021/11/18 18:27:48;;;;;;;30.15;7.35;;;11.40;99.90;;;;;;5075469;28;20021;-72
2021/11/18 18:30:23;;;;;;;26.73;7.20;;;11.40;99.90;;;;;;5060381;28;20039;-72
2021/11/18 18:32:49;;;;;;;31.65;7.18;;;11.40;99.90;;;;;;5058240;28;20052;-72
2021/11/18 18:35:16;;;;;;;38.10;6.97;;;11.40;99.90;;;;;;5068011;28;20024;-73
2021/11/18 18:37:42;;;;;;;36.58;7.15;;;11.40;99.90;;;;;;5060615;28;20113;-72
2021/11/18 18:40:19;;;;;;;33.55;7.85;;;11.40;99.90;;;;;;5064791;28;20021;-72
2021/11/18 18:42:47;;;;;;;26.17;7.82;;;11.40;99.90;;;;;;5075954;28;20040;-72
2021/11/18 18:45:16;;;;;;;33.63;7.70;;;11.40;99.90;;;;;;5054182;28;20055;-72
2021/11/18 18:47:42;;;;;;;37.58;8.25;;;11.40;99.90;;;;;;5056612;28;20305;-72
2021/11/18 18:50:10;;;;;;;32.35;6.47;;;11.40;99.90;;;;;;5069690;28;20016;-72
2021/11/18 18:52:36;;;;;;;36.90;6.72;;;11.40;99.90;;;;;;5057596;28;20037;-72
2021/11/18 18:55:06;;;;;;;27.67;6.68;;;11.40;99.90;;;;;;5054512;28;20036;-73
2021/11/18 18:57:31;;;;;;;36.13;7.63;;;11.40;99.90;;;;;;5060258;28;20028;-72
2021/11/18 18:59:59;;;;;;;32.80;7.35;;;11.40;99.90;;;;;;5048852;28;20031;-72
2021/11/18 19:03:32;;;;;;;40.17;7.85;;;11.40;99.90;;;;;;5161610;27;20118;-72
2021/11/18 19:06:02;;;;;;;41.95;8.10;;;11.40;99.90;;;;;;5122617;27;20613;-72
2021/11/18 19:08:28;;;;;;;30.98;7.05;;;11.40;99.90;;;;;;5121003;27;20026;-72
2021/11/18 19:10:58;;;;;;;28.60;7.18;;;11.40;99.90;;;;;;5139513;27;20024;-71
2021/11/18 19:13:26;;;;;;;29.08;7.20;;;11.40;99.90;;;;;;5130805;27;20035;-72
2021/11/18 19:15:53;;;;;;;33.65;7.28;;;11.40;99.90;;;;;;5120570;27;20180;-72
2021/11/18 19:18:19;;;;;;;37.35;8.18;;;11.40;99.90;;;;;;5121502;27;20027;-72
2021/11/18 19:20:48;;;;;;;29.55;6.68;;;11.30;99.90;;;;;;5142395;27;20066;-72
2021/11/18 19:23:14;;;;;;;30.25;7.28;;;11.30;99.90;;;;;;5126340;27;20033;-72
2021/11/18 19:25:47;;;;;;;26.45;6.28;;;11.30;99.90;;;;;;5142893;27;20023;-72
2021/11/18 19:28:22;;;;;;;27.83;5.65;;;11.30;99.90;;;;;;5120404;27;20502;-72
2021/11/18 19:33:36;;;;;;;29.15;6.43;;;11.30;99.90;;;;;;5138361;27;20104;-72
2021/11/18 19:36:02;;;;;;;31.23;7.47;;;11.30;99.90;;;;;;5122987;27;20027;-72
2021/11/18 19:38:32;;;;;;;35.00;7.53;;;11.30;99.90;;;;;;5126134;27;20119;-72
2021/11/18 19:41:18;;;;;;;31.67;7.13;;;11.30;99.90;;;;;;5126193;27;20065;-71
2021/11/18 19:43:44;;;;;;;38.17;7.03;;;11.30;99.90;;;;;;5126593;27;20088;-72
2021/11/18 19:46:14;;;;;;;28.70;7.32;;;11.30;99.90;;;;;;5121418;27;20022;-72
2021/11/18 19:48:40;;;;;;;32.42;8.32;;;11.30;99.90;;;;;;5127528;27;20024;-72
2021/11/18 19:51:18;;;;;;;;;;;11.30;99.90;;;;;;5142229;27;20019;-72
2021/11/18 19:53:44;;;;;;;37.38;7.68;;;11.20;99.90;;;;;;5119307;27;19935;-72
2021/11/18 19:56:10;;;;;;;27.27;7.80;;;11.20;99.90;;;;;;5142445;27;20101;-72
2021/11/18 19:58:37;;;;;;;30.27;8.38;;;11.20;99.90;;;;;;5119708;27;20111;-72
2021/11/18 20:01:02;;;;;;;;;;;11.20;99.90;;;;;;5145170;27;20432;-71
2021/11/18 20:03:31;;;;;;;24.70;6.75;;;11.20;99.90;;;;;;5151710;27;19915;-71
2021/11/18 20:05:57;;;;;;;32.60;8.80;;;11.20;99.90;;;;;;5128804;27;20052;-72
2021/11/18 20:08:24;;;;;;;35.50;7.95;;;11.20;99.90;;;;;;5144569;27;20487;-70
2021/11/18 20:10:51;;;;;;;32.30;7.93;;;11.20;99.90;;;;;;5144015;27;20107;-72
2021/11/18 20:13:20;;;;;;;28.38;7.57;;;11.20;99.90;;;;;;5121478;27;20375;-71
2021/11/18 20:15:48;;;;;;;34.30;7.47;;;11.20;99.90;;;;;;5136774;27;20522;-71
2021/11/18 20:18:14;;;;;;;30.23;7.95;;;11.20;99.90;;;;;;5105902;27;20034;-72
2021/11/18 20:20:41;;;;;;;34.40;7.55;;;11.20;99.90;;;;;;5109047;27;20027;-71
2021/11/18 20:23:08;;;;;;;29.73;7.65;;;11.20;99.90;;;;;;5105278;27;20076;-71
2021/11/18 20:25:34;;;;;;;;;;;11.20;99.90;;;;;;5107803;27;20028;-72
2021/11/18 20:28:03;;;;;;;34.53;7.40;;;11.20;99.90;;;;;;5113618;27;20448;-72
2021/11/18 20:30:37;;;;;;;31.75;7.65;;;11.20;99.90;;;;;;5108464;27;20660;-71
2021/11/18 20:33:06;;;;;;;31.35;7.32;;;11.10;99.90;;;;;;5126170;27;20015;-72
2021/11/18 20:35:38;;;;;;;27.13;6.85;;;11.10;99.90;;;;;;5111249;27;20452;-71
2021/11/18 20:38:05;;;;;;;34.90;7.15;;;11.10;99.90;;;;;;5108709;27;20066;-73
2021/11/18 20:40:40;;;;;;;31.73;7.80;;;11.20;99.90;;;;;;5108190;27;20023;-71
2021/11/18 20:43:08;;;;;;;24.23;6.97;;;11.10;99.90;;;;;;5115491;27;20047;-72
2021/11/18 20:45:35;;;;;;;34.97;7.13;;;11.20;99.90;;;;;;5106139;27;20023;-71
2021/11/18 20:48:01;;;;;;;34.13;7.80;;;11.10;99.90;;;;;;5105006;27;20027;-71
2021/11/18 20:50:37;;;;;;;26.25;6.50;;;11.10;99.90;;;;;;5109772;27;20103;-72
2021/11/18 20:53:04;;;;;;;33.45;7.68;;;11.10;99.90;;;;;;5111120;27;20406;-71
2021/11/18 20:55:31;;;;;;;;;;;11.20;99.90;;;;;;5125293;27;20030;-72
2021/11/18 20:58:02;;;;;;;28.90;6.88;;;11.10;99.90;;;;;;5124827;27;19904;-73
2021/11/18 23:01:18;;;;;;;40.47;9.48;;;11.00;99.90;;;;;;5066905;27;20187;-72
2021/11/18 23:03:45;;;;;;;36.85;9.52;;;11.00;99.90;;;;;;5051541;28;20108;-72
2021/11/18 23:06:16;;;;;;;32.38;9.40;;;10.90;99.90;;;;;;5067209;28;20029;-72
2021/11/18 23:08:42;;;;;;;34.15;9.75;;;10.90;99.90;;;;;;5051453;28;20028;-72
2021/11/18 23:11:08;;;;;;;;;;;10.90;99.90;;;;;;5070475;28;20032;-72
2021/11/18 23:13:36;;;;;;;30.55;8.80;;;10.90;99.90;;;;;;5063885;28;20353;-72
2021/11/18 23:16:04;;;;;;;33.17;8.80;;;10.90;99.90;;;;;;5067556;28;20039;-72
2021/11/18 23:18:30;;;;;;;38.20;8.88;;;10.90;99.90;;;;;;5061098;28;20100;-72
2021/11/18 23:20:58;;;;;;;34.45;8.98;;;10.90;99.90;;;;;;5069989;28;20120;-72
2021/11/18 23:23:25;;;;;;;27.58;8.40;;;10.90;99.90;;;;;;5044722;28;20099;-72
2021/11/18 23:25:51;;;;;;;34.97;8.68;;;10.90;99.90;;;;;;5048591;28;20020;-72
2021/11/18 23:28:37;;;;;;;32.95;8.40;;;10.90;99.90;;;;;;5065954;28;20037;-72
2021/11/18 23:31:09;;;;;;;33.03;9.68;;;10.90;99.90;;;;;;5053336;28;20019;-72
2021/11/18 23:33:35;;;;;;;31.67;8.48;;;10.90;99.90;;;;;;5054194;28;20071;-72
2021/11/18 23:36:03;;;;;;;;;;;10.90;99.90;;;;;;5059915;28;20028;-72
2021/11/18 23:38:30;;;;;;;33.00;9.30;;;10.90;99.90;;;;;;5055732;28;19904;-72
2021/11/18 23:40:56;;;;;;;25.25;8.23;;;10.90;99.90;;;;;;5048840;28;20033;-72
2021/11/18 23:43:22;;;;;;;24.95;8.55;;;10.90;99.90;;;;;;5055046;28;20028;-73
2021/11/18 23:45:47;;;;;;;31.13;8.73;;;10.90;99.90;;;;;;5048648;28;20071;-72
2021/11/18 23:48:13;;;;;;;35.13;9.00;;;10.90;99.90;;;;;;5074545;28;20527;-72
2021/11/18 23:50:42;;;;;;;31.17;9.02;;;10.90;99.90;;;;;;5069803;28;20034;-72
2021/11/18 23:53:09;;;;;;;32.92;9.90;;;10.90;99.90;;;;;;5052967;28;20048;-72
2021/11/18 23:55:36;;;;;;;34.47;9.52;;;10.90;99.90;;;;;;5051563;28;20025;-72
2021/11/18 23:58:03;;;;;;;38.05;9.18;;;10.90;99.90;;;;;;5059863;28;20016;-72
